createdAt,value
2022-09-06T00:03:30.133Z,2.30
2022-09-06T00:08:37.394Z,2.20
2022-09-06T00:13:44.673Z,2.50
2022-09-06T00:18:55.307Z,2.17
2022-09-06T00:24:04.230Z,2.40
2022-09-06T00:29:11.185Z,2.30
2022-09-06T00:34:18.250Z,2.00
2022-09-06T00:39:25.450Z,2.83
2022-09-06T00:44:32.791Z,2.43
2022-09-06T00:49:42.591Z,2.37
2022-09-06T00:54:51.225Z,2.30
2022-09-06T00:59:58.648Z,2.40
2022-09-06T01:05:07.019Z,2.47
2022-09-06T01:10:16.807Z,2.43
2022-09-06T01:15:23.096Z,2.53
2022-09-06T01:20:31.144Z,1.90
2022-09-06T01:25:40.929Z,2.27
2022-09-06T01:30:50.780Z,2.23
2022-09-06T01:36:00.675Z,2.57
2022-09-06T01:41:07.566Z,2.97
2022-09-06T01:46:16.922Z,2.40
2022-09-06T01:51:26.747Z,2.30
2022-09-06T01:56:36.612Z,2.17
2022-09-06T02:01:46.413Z,2.37
2022-09-06T02:06:56.280Z,2.03
2022-09-06T02:12:05.318Z,2.50
2022-09-06T02:17:15.223Z,2.40
2022-09-06T02:22:25.201Z,2.57
2022-09-06T02:27:32.158Z,2.07
2022-09-06T02:32:41.997Z,2.63
2022-09-06T02:37:49.027Z,1.80
2022-09-06T02:42:55.978Z,2.20
2022-09-06T02:48:02.981Z,2.00
2022-09-06T02:53:13.163Z,2.47
2022-09-06T02:58:20.232Z,2.37
2022-09-06T03:03:27.733Z,1.93
2022-09-06T03:08:36.197Z,2.60
2022-09-06T03:13:43.059Z,2.30
2022-09-06T03:18:49.899Z,2.60
2022-09-06T03:23:56.784Z,2.10
2022-09-06T03:29:03.675Z,2.40
2022-09-06T03:34:11.319Z,2.20
2022-09-06T03:39:18.515Z,2.90
2022-09-06T03:44:26.297Z,2.37
2022-09-06T03:49:33.234Z,1.90
2022-09-06T03:54:40.996Z,1.97
2022-09-06T03:59:47.862Z,2.70
2022-09-06T04:04:55.885Z,2.23
2022-09-06T04:10:02.761Z,2.60
2022-09-06T04:15:10.229Z,2.23
2022-09-06T04:20:17.873Z,2.43
2022-09-06T04:25:24.724Z,2.43
2022-09-06T04:30:32.191Z,2.53
2022-09-06T04:35:39.235Z,2.20
2022-09-06T04:40:46.431Z,2.57
2022-09-06T04:45:53.415Z,2.70
2022-09-06T04:51:00.361Z,2.23
2022-09-06T04:56:07.461Z,2.17
2022-09-06T05:01:14.928Z,2.10
2022-09-06T05:06:25.255Z,2.30
2022-09-06T05:11:32.084Z,2.47
2022-09-06T05:16:39.105Z,2.37
2022-09-06T05:21:46.512Z,2.30
2022-09-06T05:26:53.472Z,2.50
2022-09-06T05:32:00.717Z,2.60
2022-09-06T05:37:07.702Z,2.60
2022-09-06T05:42:18.627Z,2.53
2022-09-06T05:47:23.238Z,2.47
2022-09-06T05:52:30.490Z,2.77
2022-09-06T05:57:39.400Z,3.00
2022-09-06T06:02:48.679Z,2.83
2022-09-06T06:07:55.940Z,2.63
2022-09-06T06:13:03.053Z,2.30
2022-09-06T06:18:10.208Z,2.30
2022-09-06T06:23:17.544Z,2.30
2022-09-06T06:28:24.997Z,1.93
2022-09-06T06:33:32.673Z,2.40
2022-09-06T06:38:40.909Z,2.77
2022-09-06T06:43:48.027Z,2.53
2022-09-06T06:48:55.650Z,2.13
2022-09-06T06:54:02.829Z,2.83
2022-09-06T06:59:09.996Z,2.30
2022-09-06T07:04:16.851Z,2.40
2022-09-06T07:09:24.423Z,2.60
2022-09-06T07:14:31.443Z,2.40
2022-09-06T07:24:46.976Z,2.53
2022-09-06T07:29:53.885Z,2.10
2022-09-06T07:35:00.844Z,2.60
2022-09-06T07:40:08.379Z,2.40
2022-09-06T07:45:15.355Z,2.00
2022-09-06T07:55:31.252Z,3.20
2022-09-06T08:00:40.037Z,2.73
2022-09-06T08:10:59.004Z,2.93
2022-09-06T08:16:09.039Z,3.10
2022-09-06T08:21:17.810Z,2.77
2022-09-06T08:26:27.163Z,2.43
2022-09-06T08:31:35.963Z,3.13
2022-09-06T08:36:44.517Z,2.77
2022-09-06T08:41:54.436Z,3.10
2022-09-06T08:47:02.603Z,2.77
2022-09-06T08:52:12.611Z,2.83
2022-09-06T08:57:21.648Z,3.23
2022-09-06T09:02:29.403Z,2.87
2022-09-06T09:07:39.163Z,2.87
2022-09-06T09:12:48.705Z,2.93
2022-09-06T09:17:56.388Z,2.97
2022-09-06T09:23:04.790Z,3.33
2022-09-06T09:28:14.677Z,2.87
2022-09-06T09:33:22.738Z,3.30
2022-09-06T09:38:32.761Z,3.80
2022-09-06T09:43:42.719Z,2.90
2022-09-06T09:48:52.813Z,3.47
2022-09-06T09:54:04.389Z,2.93
2022-09-06T09:59:14.538Z,3.23
2022-09-06T10:09:36.698Z,3.77
2022-09-06T10:14:47.359Z,3.30
2022-09-06T10:19:55.129Z,3.03
2022-09-06T10:25:05.457Z,3.30
2022-09-06T10:30:14.452Z,3.33
2022-09-06T10:35:24.985Z,3.03
2022-09-06T10:40:35.383Z,3.10
2022-09-06T10:45:46.233Z,3.73
2022-09-06T10:50:56.331Z,3.47
2022-09-06T10:56:06.666Z,3.30
2022-09-06T11:01:16.821Z,2.87
2022-09-06T11:06:28.279Z,3.40
2022-09-06T11:11:39.074Z,3.30
2022-09-06T11:16:49.066Z,3.27
2022-09-06T11:21:59.493Z,3.77
2022-09-06T11:27:08.085Z,3.50
2022-09-06T11:32:18.496Z,3.23
2022-09-06T11:37:29.205Z,3.13
2022-09-06T11:42:39.326Z,3.10
2022-09-06T11:47:49.313Z,3.03
2022-09-06T11:52:58.188Z,3.03
2022-09-06T11:58:08.541Z,3.13
2022-09-06T12:08:30.418Z,2.60
2022-09-06T12:13:40.461Z,3.07
2022-09-06T12:18:49.373Z,2.90
2022-09-06T12:23:56.905Z,2.77
2022-09-06T12:29:07.373Z,3.13
2022-09-06T12:34:17.268Z,3.13
2022-09-06T12:39:24.807Z,2.87
2022-09-06T12:44:36.177Z,2.77
2022-09-06T12:49:44.075Z,3.00
2022-09-06T12:54:52.590Z,2.90
2022-09-06T13:00:00.141Z,3.27
2022-09-06T13:05:11.910Z,3.03
2022-09-06T13:10:22.535Z,2.60
2022-09-06T13:15:31.655Z,3.17
2022-09-06T13:20:40.259Z,2.83
2022-09-06T13:25:52.228Z,2.67
2022-09-06T13:31:03.736Z,3.07
2022-09-06T13:36:12.244Z,2.70
2022-09-06T13:41:22.448Z,3.20
2022-09-06T13:46:29.723Z,2.97
2022-09-06T13:51:39.211Z,2.73
2022-09-06T13:56:46.488Z,3.07
2022-09-06T14:01:56.671Z,2.70
2022-09-06T14:07:04.309Z,2.50
2022-09-06T14:12:11.363Z,2.67
2022-09-06T14:17:18.294Z,2.63
2022-09-06T14:22:25.406Z,2.60
2022-09-06T14:27:32.934Z,2.77
2022-09-06T14:32:40.047Z,2.10
2022-09-06T14:37:47.328Z,2.50
2022-09-06T14:42:55.111Z,2.30
2022-09-06T14:48:02.475Z,2.60
2022-09-06T14:53:30.076Z,2.50
2022-09-06T14:58:18.128Z,2.70
2022-09-06T15:03:25.357Z,2.33
2022-09-06T15:08:32.737Z,3.00
2022-09-06T15:13:41.702Z,2.70
2022-09-06T15:18:48.765Z,2.73
2022-09-06T15:23:56.590Z,2.63
2022-09-06T15:29:04.205Z,2.80
2022-09-06T15:34:12.292Z,2.57
2022-09-06T15:39:20.344Z,2.60
2022-09-06T15:44:27.478Z,2.60
2022-09-06T15:49:34.864Z,2.20
2022-09-06T15:54:43.501Z,2.63
2022-09-06T15:59:50.865Z,2.57
2022-09-06T16:04:57.979Z,2.70
2022-09-06T16:10:05.902Z,2.20
2022-09-06T16:15:13.582Z,2.87
2022-09-06T16:20:20.759Z,2.60
2022-09-06T16:25:28.510Z,2.70
2022-09-06T16:30:36.151Z,2.20
2022-09-06T16:35:44.428Z,2.20
2022-09-06T16:40:51.599Z,2.43
2022-09-06T16:46:01.306Z,2.47
2022-09-06T16:51:11.582Z,2.40
2022-09-06T16:56:22.055Z,2.47
2022-09-06T17:01:32.408Z,2.30
2022-09-06T17:06:41.122Z,2.27
2022-09-06T17:11:50.758Z,2.50
2022-09-06T17:16:59.466Z,2.27
2022-09-06T17:22:06.918Z,2.40
2022-09-06T17:27:14.055Z,2.57
2022-09-06T17:32:21.119Z,2.23
2022-09-06T17:37:28.532Z,2.50
2022-09-06T17:42:35.659Z,2.70
2022-09-06T17:47:42.758Z,2.23
2022-09-06T17:52:53.801Z,2.50
2022-09-06T17:58:01.358Z,2.57
2022-09-06T18:03:09.430Z,2.13
2022-09-06T18:08:16.721Z,2.57
2022-09-06T18:13:24.335Z,2.23
2022-09-06T18:18:34.553Z,2.60
2022-09-06T18:23:42.460Z,2.57
2022-09-06T18:28:49.770Z,2.50
2022-09-06T18:33:59.404Z,2.83
2022-09-06T18:39:08.476Z,2.70
2022-09-06T18:44:17.176Z,2.70
2022-09-06T18:49:25.131Z,2.17
2022-09-06T18:54:33.225Z,2.60
2022-09-06T18:59:40.740Z,3.00
2022-09-06T19:04:48.512Z,2.77
2022-09-06T19:09:55.641Z,3.13
2022-09-06T19:15:02.949Z,2.97
2022-09-06T19:20:11.675Z,2.83
2022-09-06T19:25:19.965Z,1.50
2022-09-06T19:30:27.312Z,0.90
2022-09-06T19:35:50.826Z,0.67
2022-09-06T19:40:46.457Z,0.50
2022-09-06T19:45:53.908Z,0.70
2022-09-06T19:51:04.592Z,0.90
2022-09-06T19:56:14.385Z,0.90
2022-09-06T20:01:21.787Z,0.70
2022-09-06T20:06:28.933Z,0.60
2022-09-06T20:11:39.499Z,0.70
2022-09-06T20:16:47.160Z,0.60
2022-09-06T20:21:55.347Z,0.67
2022-09-06T20:27:02.531Z,0.63
2022-09-06T20:32:10.041Z,0.73
2022-09-06T20:37:17.318Z,0.70
2022-09-06T20:42:24.664Z,0.60
2022-09-06T20:47:31.671Z,0.63
2022-09-06T20:52:38.700Z,0.60
2022-09-06T20:57:47.979Z,0.70
2022-09-06T21:02:54.882Z,0.60
2022-09-06T21:08:02.149Z,0.60
2022-09-06T21:13:09.699Z,0.70
2022-09-06T21:18:16.720Z,0.60
2022-09-06T21:23:24.731Z,0.53
2022-09-06T21:28:33.911Z,0.57
2022-09-06T21:33:43.509Z,0.53
2022-09-06T21:38:53.015Z,0.60
2022-09-06T21:44:02.014Z,0.60
2022-09-06T21:49:11.395Z,0.80
2022-09-06T21:54:18.270Z,0.50
2022-09-06T21:59:25.158Z,0.77
2022-09-06T22:04:32.595Z,0.70
2022-09-06T22:09:39.538Z,0.60
2022-09-06T22:14:47.963Z,0.50
2022-09-06T22:19:54.946Z,0.60
2022-09-06T22:25:02.230Z,0.67
2022-09-06T22:30:09.892Z,0.60
2022-09-06T22:35:16.982Z,0.80
2022-09-06T22:40:23.840Z,0.70
2022-09-06T22:45:32.961Z,0.70
2022-09-06T22:50:40.641Z,0.60
2022-09-06T22:55:48.892Z,0.70
2022-09-06T23:00:56.787Z,0.70
2022-09-06T23:06:04.624Z,0.70
2022-09-06T23:11:14.293Z,0.90
2022-09-06T23:16:22.785Z,0.63
2022-09-06T23:21:29.959Z,0.70
2022-09-06T23:26:37.168Z,0.70
2022-09-06T23:31:44.136Z,0.80
2022-09-06T23:36:52.612Z,0.60
2022-09-06T23:41:59.657Z,0.80
2022-09-06T23:47:06.555Z,0.70
2022-09-06T23:52:13.402Z,0.70
2022-09-06T23:57:20.296Z,0.67
